Time;durP1;ratioP1;P1;durP2;ratioP2;P2;SDS_P1;SDS_P2;PMS_P1;PMS_P2;Temp;Humidity;BMP_temperature;BMP_pressure;BME280_temperature;BME280_humidity;BME280_pressure;Samples;Min_cycle;Max_cycle;Signal;HPM_P1;HPM_P2
2021/10/15 00:01:23;;;;;;;12.80;7.30;;;;;;;8.61;100.00;99271.50;5054223;28;19923;-62
2021/10/15 00:04:08;;;;;;;10.93;7.57;;;;;;;8.58;100.00;99274.19;5083326;28;20055;-62
2021/10/15 00:06:54;;;;;;;13.05;7.18;;;;;;;8.52;100.00;99269.94;5083212;28;20055;-61
2021/10/15 00:09:38;;;;;;;12.23;7.57;;;;;;;8.59;100.00;99283.91;5066393;28;20048;-60
2021/10/15 00:12:23;;;;;;;12.23;7.07;;;;;;;8.58;100.00;99283.00;5064642;28;20051;-60
2021/10/15 00:15:08;;;;;;;12.02;7.10;;;;;;;8.52;100.00;99295.47;5052874;28;20440;-60
2021/10/15 00:17:55;;;;;;;10.98;6.03;;;;;;;8.50;100.00;99289.34;5069567;28;20125;-61
2021/10/15 00:20:40;;;;;;;7.88;5.43;;;;;;;8.48;100.00;99285.88;5066421;28;20523;-61
2021/10/15 00:23:25;;;;;;;6.25;4.30;;;;;;;8.40;100.00;99290.44;5066857;28;20047;-62
2021/10/15 00:26:09;;;;;;;7.10;4.35;;;;;;;8.27;100.00;99288.94;5061529;28;20140;-61
2021/10/15 00:28:54;;;;;;;7.18;3.28;;;;;;;8.23;100.00;99293.38;5066765;28;20044;-62
2021/10/15 00:31:39;;;;;;;3.95;2.53;;;;;;;8.27;100.00;99288.94;5046400;28;20101;-64
2021/10/15 00:34:24;;;;;;;3.67;2.38;;;;;;;8.23;100.00;99305.72;5086171;28;20066;-62
2021/10/15 00:37:11;;;;;;;5.97;2.08;;;;;;;8.09;100.00;99297.13;5044735;28;20060;-64
2021/10/15 00:39:55;;;;;;;;;;;;;;;8.08;100.00;99313.88;5059627;28;20105;-60
2021/10/15 00:42:40;;;;;;;3.72;1.60;;;;;;;8.06;100.00;99318.28;5055167;28;19927;-62
2021/10/15 00:45:25;;;;;;;2.10;1.55;;;;;;;8.10;100.00;99319.97;5064459;28;20102;-62
2021/10/15 00:48:10;;;;;;;;;;;;;;;8.05;100.00;99320.09;5066133;28;20515;-63
2021/10/15 00:50:55;;;;;;;1.77;1.13;;;;;;;8.01;100.00;99343.91;5051416;28;20020;-67
2021/10/15 00:53:40;;;;;;;1.73;1.25;;;;;;;8.05;100.00;99337.69;5066474;28;20051;-61
2021/10/15 00:56:27;;;;;;;2.60;1.33;;;;;;;8.03;100.00;99332.44;5064489;28;20109;-64
2021/10/15 00:59:13;;;;;;;2.45;1.50;;;;;;;7.94;100.00;99336.97;5045692;28;20094;-66
2021/10/15 01:01:58;;;;;;;;;;;;;;;7.93;100.00;99346.69;5065351;28;20051;-63
2021/10/15 01:04:44;;;;;;;2.17;1.40;;;;;;;7.87;100.00;99335.38;5065051;28;20328;-62
2021/10/15 01:07:28;;;;;;;2.75;1.40;;;;;;;7.74;100.00;99347.88;5066500;28;20551;-64
2021/10/15 01:10:13;;;;;;;3.25;1.27;;;;;;;7.73;100.00;99338.22;5060217;28;20051;-67
2021/10/15 01:12:59;;;;;;;3.72;1.35;;;;;;;7.75;100.00;99339.06;5065903;28;20078;-63
2021/10/15 01:15:45;;;;;;;2.90;1.00;;;;;;;7.73;100.00;99359.31;5063693;28;20063;-63
2021/10/15 01:18:32;;;;;;;1.73;1.10;;;;;;;7.64;100.00;99351.53;5064765;28;20094;-61
2021/10/15 01:21:18;;;;;;;1.67;1.10;;;;;;;7.57;100.00;99354.28;5063387;28;20090;-63
2021/10/15 01:24:04;;;;;;;1.65;1.10;;;;;;;7.53;100.00;99349.97;5055202;28;20097;-62
2021/10/15 01:26:50;;;;;;;2.05;1.20;;;;;;;7.48;100.00;99381.66;5062766;28;20059;-63
2021/10/15 01:29:36;;;;;;;1.52;0.80;;;;;;;7.48;100.00;99383.44;5053934;28;20120;-65
2021/10/15 01:32:21;;;;;;;1.30;1.00;;;;;;;7.46;100.00;99379.94;5057879;28;20105;-64
2021/10/15 01:35:06;;;;;;;1.30;1.00;;;;;;;7.37;100.00;99409.97;5048421;28;20103;-64
2021/10/15 01:37:50;;;;;;;1.10;0.90;;;;;;;7.32;100.00;99393.31;5054049;28;20479;-64
2021/10/15 01:40:35;;;;;;;1.30;0.70;;;;;;;7.35;100.00;99408.22;5064836;28;20063;-63
2021/10/15 01:43:27;;;;;;;1.25;0.88;;;;;;;7.39;100.00;99408.19;5052364;28;20055;-65
2021/10/15 01:46:12;;;;;;;0.93;0.70;;;;;;;7.29;100.00;99406.56;5068316;28;20633;-64
2021/10/15 01:48:56;;;;;;;2.08;0.98;;;;;;;7.28;100.00;99399.53;5066688;28;20530;-64
2021/10/15 01:51:41;;;;;;;0.80;0.60;;;;;;;7.18;100.00;99415.47;5081095;28;20078;-64
2021/10/15 01:54:25;;;;;;;1.50;0.57;;;;;;;7.22;100.00;99420.72;5057433;28;20414;-62
2021/10/15 01:57:10;;;;;;;1.00;0.50;;;;;;;7.12;100.00;99416.41;5067278;28;20071;-64
2021/10/15 01:59:54;;;;;;;1.02;0.57;;;;;;;7.10;100.00;99430.50;5069267;28;20051;-63
2021/10/15 02:02:40;;;;;;;0.88;0.70;;;;;;;7.14;100.00;99425.19;5064803;28;20436;-65
2021/10/15 02:05:25;;;;;;;1.00;0.60;;;;;;;7.06;100.00;99437.59;5068138;28;20416;-64
2021/10/15 02:08:11;;;;;;;0.50;0.50;;;;;;;7.07;100.00;99451.63;5048218;28;20063;-65
2021/10/15 02:10:56;;;;;;;1.23;0.70;;;;;;;7.19;100.00;99448.84;5063323;28;20059;-64
2021/10/15 02:13:40;;;;;;;2.30;0.67;;;;;;;7.07;100.00;99460.44;5063968;28;20051;-63
2021/10/15 02:16:25;;;;;;;0.98;0.65;;;;;;;7.11;100.00;99454.22;5065927;28;20075;-64
2021/10/15 02:19:09;;;;;;;0.90;0.60;;;;;;;7.10;100.00;99470.94;5067062;28;20082;-66
2021/10/15 02:21:54;;;;;;;1.95;0.65;;;;;;;7.05;100.00;99467.50;5051282;28;20076;-64
2021/10/15 02:24:39;;;;;;;1.10;0.80;;;;;;;7.04;100.00;99492.09;5061305;28;20424;-65
2021/10/15 02:27:26;;;;;;;1.15;0.68;;;;;;;6.97;100.00;99458.75;5054490;28;20094;-64
2021/10/15 02:30:12;;;;;;;1.20;0.60;;;;;;;6.94;100.00;99468.47;5066258;28;20059;-64
2021/10/15 02:32:56;;;;;;;2.53;0.75;;;;;;;6.97;100.00;99479.00;5067863;28;20047;-66
2021/10/15 02:35:41;;;;;;;1.23;0.70;;;;;;;6.96;100.00;99493.06;5075788;28;20424;-65
2021/10/15 02:38:25;;;;;;;1.13;0.88;;;;;;;6.87;100.00;99480.84;5049840;28;20145;-62
2021/10/15 02:41:10;;;;;;;0.85;0.63;;;;;;;6.93;100.00;99501.84;5062853;28;20056;-63
2021/10/15 02:43:54;;;;;;;1.17;0.60;;;;;;;6.90;100.00;99487.84;5065629;28;20086;-63
2021/10/15 02:46:41;;;;;;;0.82;0.60;;;;;;;6.93;100.00;99501.00;5063788;28;20140;-65
2021/10/15 02:49:26;;;;;;;1.92;0.70;;;;;;;6.86;100.00;99497.56;5063629;28;20118;-65
2021/10/15 02:52:10;;;;;;;3.65;0.73;;;;;;;6.87;100.00;99504.56;5065245;28;20051;-63
2021/10/15 02:54:55;;;;;;;1.50;0.80;;;;;;;6.87;100.00;99506.31;5044250;28;20102;-64
2021/10/15 02:57:39;;;;;;;3.22;0.52;;;;;;;6.86;100.00;99517.75;5055497;28;20079;-62
2021/10/15 03:00:24;;;;;;;1.10;0.60;;;;;;;6.87;100.00;99511.59;5061915;28;20102;-64
2021/10/15 03:03:08;;;;;;;1.95;0.70;;;;;;;6.72;100.00;99502.06;5064503;28;20189;-62
2021/10/15 03:05:53;;;;;;;0.73;0.57;;;;;;;6.81;100.00;99516.94;5064540;28;20147;-63
2021/10/15 03:08:37;;;;;;;1.15;0.85;;;;;;;6.88;100.00;99529.16;5053026;28;20075;-62
2021/10/15 03:11:22;;;;;;;1.38;0.90;;;;;;;6.82;100.00;99527.47;5052962;28;20060;-62
2021/10/15 03:14:06;;;;;;;1.15;0.77;;;;;;;6.84;100.00;99506.38;5062148;28;20095;-62
2021/10/15 03:16:51;;;;;;;2.55;1.10;;;;;;;6.84;100.00;99523.03;5058101;28;20420;-62
2021/10/15 03:19:35;;;;;;;1.55;0.90;;;;;;;6.83;100.00;99533.59;5064522;28;20055;-64
2021/10/15 03:22:20;;;;;;;2.47;1.00;;;;;;;6.84;100.00;99532.72;5066050;28;20044;-63
2021/10/15 03:25:05;;;;;;;1.88;1.08;;;;;;;6.86;100.00;99537.09;5047728;28;20164;-64
2021/10/15 03:27:49;;;;;;;2.00;1.40;;;;;;;6.92;100.00;99550.19;5058294;28;20051;-63
2021/10/15 03:30:36;;;;;;;1.98;1.40;;;;;;;6.87;100.00;99546.72;5072385;28;20093;-63
2021/10/15 03:33:20;;;;;;;1.67;1.20;;;;;;;6.92;100.00;99549.34;5062938;28;20059;-63
2021/10/15 03:36:04;;;;;;;1.83;1.10;;;;;;;6.89;100.00;99558.13;5054380;28;20056;-63
2021/10/15 03:38:49;;;;;;;2.47;1.50;;;;;;;6.87;100.00;99573.09;5059417;28;20428;-65
2021/10/15 03:41:33;;;;;;;2.42;1.40;;;;;;;6.91;100.00;99576.56;5053389;28;20097;-63
2021/10/15 03:44:18;;;;;;;3.60;1.92;;;;;;;6.86;100.00;99573.97;5062163;28;20079;-66
2021/10/15 03:47:03;;;;;;;2.75;1.70;;;;;;;6.94;100.00;99579.16;5075739;28;20094;-62
2021/10/15 03:49:49;;;;;;;3.33;1.88;;;;;;;6.95;100.00;99576.53;5076662;28;20554;-65
2021/10/15 03:52:33;;;;;;;3.17;1.85;;;;;;;7.00;100.00;99579.13;5063427;28;20562;-63
2021/10/15 03:55:18;;;;;;;;;;;;;;;6.96;100.00;99595.84;5054929;28;20142;-64
2021/10/15 03:58:03;;;;;;;4.07;1.90;;;;;;;6.93;100.00;99601.16;5059465;28;19965;-70
2021/10/15 04:00:48;;;;;;;3.90;2.20;;;;;;;6.99;100.00;99596.69;5051678;28;20447;-64
2021/10/15 04:03:32;;;;;;;4.53;2.25;;;;;;;7.02;100.00;99593.16;5064099;28;20491;-61
2021/10/15 04:06:17;;;;;;;3.95;2.72;;;;;;;7.03;100.00;99601.06;5065008;28;20125;-63
2021/10/15 04:09:01;;;;;;;4.65;2.70;;;;;;;7.03;100.00;99608.97;5064455;28;20075;-63
2021/10/15 04:11:46;;;;;;;4.30;2.10;;;;;;;7.05;100.00;99604.56;5053627;28;20044;-61
2021/10/15 04:14:30;;;;;;;5.03;2.50;;;;;;;7.06;100.00;99622.13;5066071;28;20150;-64
2021/10/15 04:17:18;;;;;;;4.20;2.67;;;;;;;6.96;100.00;99620.44;5049800;28;20078;-63
2021/10/15 04:20:06;;;;;;;7.45;4.05;;;;;;;6.98;100.00;99629.22;5078764;28;20102;-65
2021/10/15 04:22:51;;;;;;;5.50;3.47;;;;;;;6.96;100.00;99638.03;5056847;28;20105;-65
2021/10/15 04:25:36;;;;;;;6.00;3.20;;;;;;;6.91;100.00;99637.16;5068370;28;20047;-72
2021/10/15 04:28:20;;;;;;;5.05;3.10;;;;;;;6.79;100.00;99645.16;5066111;28;20166;-63
2021/10/15 04:31:05;;;;;;;4.45;3.25;;;;;;;6.85;100.00;99642.50;5063315;28;20055;-63
2021/10/15 04:33:50;;;;;;;5.15;3.22;;;;;;;6.77;100.00;99639.91;5064876;28;20480;-65
2021/10/15 04:36:35;;;;;;;5.78;3.85;;;;;;;6.90;100.00;99660.03;5049530;28;20106;-66
2021/10/15 04:39:22;;;;;;;5.25;3.63;;;;;;;6.87;100.00;99648.63;5035042;28;20052;-63
2021/10/15 04:42:07;;;;;;;6.10;3.60;;;;;;;6.93;100.00;99670.53;5064669;28;20596;-63
2021/10/15 04:44:52;;;;;;;5.97;3.80;;;;;;;6.97;100.00;99680.16;5063392;28;20697;-65
2021/10/15 04:47:37;;;;;;;6.22;4.00;;;;;;;7.00;100.00;99687.19;5054801;28;20083;-62
2021/10/15 04:50:22;;;;;;;5.15;3.10;;;;;;;7.02;100.00;99691.56;5064969;28;20092;-65
2021/10/15 04:53:08;;;;;;;6.63;3.42;;;;;;;7.03;100.00;99684.53;5064343;28;20407;-64
2021/10/15 04:55:52;;;;;;;5.75;3.47;;;;;;;6.86;100.00;99684.66;5054776;28;20113;-65
2021/10/15 04:58:36;;;;;;;5.25;3.47;;;;;;;6.99;100.00;99685.44;5053741;28;20057;-67
2021/10/15 05:01:22;;;;;;;6.18;3.50;;;;;;;7.07;100.00;99715.25;5043138;28;20122;-64
2021/10/15 05:04:07;;;;;;;6.82;4.07;;;;;;;7.08;100.00;99722.28;5061316;28;20235;-62
2021/10/15 05:06:52;;;;;;;5.35;3.25;;;;;;;7.01;100.00;99712.66;5065047;28;20121;-65
2021/10/15 05:09:37;;;;;;;5.00;3.50;;;;;;;7.01;100.00;99715.31;5060765;28;20052;-63
2021/10/15 05:12:22;;;;;;;5.90;3.67;;;;;;;6.92;100.00;99715.38;5055869;28;20517;-66
2021/10/15 05:15:11;;;;;;;6.18;3.55;;;;;;;6.96;100.00;99730.28;5058113;28;20052;-65
2021/10/15 05:17:59;;;;;;;6.03;3.70;;;;;;;7.00;100.00;99727.59;5063493;28;20085;-64
2021/10/15 05:20:45;;;;;;;5.50;3.55;;;;;;;6.98;100.00;99734.66;5070277;28;20392;-64
2021/10/15 05:23:29;;;;;;;9.52;4.30;;;;;;;6.94;100.00;99742.56;5067731;28;20523;-66
2021/10/15 05:26:14;;;;;;;8.43;4.57;;;;;;;6.97;100.00;99738.16;5069228;28;20175;-64
2021/10/15 05:28:58;;;;;;;6.40;3.60;;;;;;;6.96;100.00;99746.94;5067535;28;20101;-68
2021/10/15 05:31:43;;;;;;;6.65;3.75;;;;;;;6.94;100.00;99739.94;5067361;28;20095;-65
2021/10/15 05:34:27;;;;;;;8.90;4.10;;;;;;;7.00;100.00;99748.69;5064445;28;20416;-63
2021/10/15 05:37:17;;;;;;;5.43;3.40;;;;;;;6.99;100.00;99756.59;5067087;28;20475;-65
2021/10/15 05:40:03;;;;;;;6.72;3.58;;;;;;;7.08;100.00;99757.41;5067523;28;20396;-64
2021/10/15 05:42:50;;;;;;;6.97;3.67;;;;;;;7.10;100.00;99775.88;5067777;28;20519;-64
2021/10/15 05:45:34;;;;;;;6.55;3.55;;;;;;;6.99;100.00;99754.84;5064289;28;20771;-64
2021/10/15 05:48:19;;;;;;;5.40;3.60;;;;;;;7.06;100.00;99759.22;5055922;28;20052;-64
2021/10/15 05:51:03;;;;;;;8.15;4.55;;;;;;;7.16;100.00;99765.28;5065087;28;20082;-65
2021/10/15 05:53:50;;;;;;;5.05;3.25;;;;;;;7.19;100.00;99775.81;5053304;28;20047;-65
2021/10/15 05:59:20;;;;;;;5.50;3.17;;;;;;;7.18;100.00;99771.41;5067446;28;20178;-63
2021/10/15 06:02:06;;;;;;;5.90;3.42;;;;;;;7.15;100.00;99777.59;5061858;28;20074;-69
2021/10/15 06:16:56;;;;;;;8.07;3.88;;;;;;;7.19;100.00;99796.91;5067531;28;20222;-62
2021/10/15 06:19:44;;;;;;;6.53;3.92;;;;;;;7.10;100.00;99797.84;5064391;28;20523;-63
2021/10/15 06:22:30;;;;;;;7.45;4.18;;;;;;;7.15;100.00;99805.72;5064858;28;20078;-64
2021/10/15 06:25:15;;;;;;;8.40;3.92;;;;;;;7.21;100.00;99805.69;5064303;28;20067;-65
2021/10/15 06:28:01;;;;;;;9.38;3.80;;;;;;;7.15;100.00;99819.78;5060340;28;20075;-62
2021/10/15 06:30:46;;;;;;;5.68;3.75;;;;;;;7.24;100.00;99821.50;5067945;28;20051;-64
2021/10/15 06:33:31;;;;;;;6.88;3.78;;;;;;;7.19;100.00;99810.06;5066234;28;20056;-64
2021/10/15 06:36:16;;;;;;;7.43;4.03;;;;;;;7.17;100.00;99825.03;5066107;28;20089;-66
2021/10/15 06:39:00;;;;;;;6.13;3.75;;;;;;;7.13;100.00;99816.28;5048133;28;20056;-63
2021/10/15 06:41:45;;;;;;;6.53;3.33;;;;;;;7.22;100.00;99813.59;5057145;28;20055;-64
2021/10/15 06:44:30;;;;;;;7.53;3.00;;;;;;;7.24;100.00;99832.03;5060685;28;20065;-65
2021/10/15 06:47:15;;;;;;;8.15;3.20;;;;;;;7.26;100.00;99836.44;5065714;28;20146;-65
2021/10/15 06:50:01;;;;;;;6.40;3.35;;;;;;;7.31;100.00;99834.63;5063739;28;20185;-66
2021/10/15 06:52:49;;;;;;;5.07;3.30;;;;;;;7.34;100.00;99833.72;5059618;28;20051;-63
2021/10/15 06:55:35;;;;;;;7.43;3.30;;;;;;;7.36;100.00;99850.44;5067330;28;20143;-70
2021/10/15 06:58:21;;;;;;;5.72;2.83;;;;;;;7.43;100.00;99854.75;5065203;28;20552;-66
2021/10/15 07:01:06;;;;;;;5.50;3.00;;;;;;;7.55;100.00;99850.28;5064542;28;20054;-66
2021/10/15 07:03:51;;;;;;;5.80;3.25;;;;;;;7.65;100.00;99848.47;5070233;28;20117;-68
2021/10/15 07:06:35;;;;;;;7.75;3.38;;;;;;;7.85;100.00;99863.28;5054034;28;20135;-64
2021/10/15 07:09:26;;;;;;;4.20;3.30;;;;;;;7.92;100.00;99858.84;5080142;28;20169;-67
2021/10/15 07:12:12;;;;;;;5.97;3.30;;;;;;;8.17;100.00;99852.44;5043581;28;20056;-66
2021/10/15 07:15:16;;;;;;;4.05;2.83;;;;;;;8.35;100.00;99861.09;5063339;28;20172;-66
2021/10/15 07:18:03;;;;;;;6.55;3.13;;;;;;;8.45;100.00;99870.69;5062745;28;20075;-67
2021/10/15 07:20:48;;;;;;;4.32;2.70;;;;;;;8.52;100.00;99853.91;5067594;28;20052;-64
2021/10/15 07:23:33;;;;;;;4.88;2.65;;;;;;;8.65;100.00;99873.13;5064589;28;20058;-66
2021/10/15 07:26:18;;;;;;;4.60;2.70;;;;;;;8.82;100.00;99879.09;5067024;28;20098;-68
2021/10/15 07:29:05;;;;;;;3.40;2.42;;;;;;;8.71;100.00;99883.66;5054671;28;20098;-66
2021/10/15 07:31:49;;;;;;;4.20;2.20;;;;;;;8.74;100.00;99888.88;5048744;28;20095;-66
2021/10/15 07:34:34;;;;;;;4.60;2.85;;;;;;;8.62;100.00;99889.00;5077056;28;20117;-68
2021/10/15 07:37:20;;;;;;;4.00;2.78;;;;;;;8.59;100.00;99892.56;5064068;28;20051;-66
2021/10/15 07:40:05;;;;;;;4.35;2.53;;;;;;;8.58;100.00;99903.13;5067132;28;20098;-65
2021/10/15 07:42:51;;;;;;;6.05;3.03;;;;;;;8.59;100.00;99905.78;5063309;28;20108;-64
2021/10/15 07:45:38;;;;;;;4.20;3.00;;;;;;;8.56;100.00;99900.53;5067380;28;20047;-64
2021/10/15 07:48:25;;;;;;;6.40;2.78;;;;;;;8.51;100.00;99915.53;5065021;28;20098;-64
2021/10/15 07:51:11;;;;;;;3.42;2.35;;;;;;;8.46;100.00;99909.44;5064642;28;20074;-69
2021/10/15 07:53:55;;;;;;;6.25;2.97;;;;;;;8.52;100.00;99924.34;5058479;28;20416;-66
2021/10/15 07:56:43;;;;;;;5.18;2.83;;;;;;;8.56;100.00;99921.69;5063652;28;20075;-68
2021/10/15 07:59:28;;;;;;;5.30;3.00;;;;;;;8.54;100.00;99920.81;5048405;28;20051;-63
2021/10/15 08:02:12;;;;;;;;;;;;;;;8.69;100.00;99925.94;5055729;28;20090;-64
2021/10/15 08:04:57;;;;;;;4.30;2.60;;;;;;;8.89;100.00;99936.31;5058072;28;20458;-66
2021/10/15 08:07:42;;;;;;;4.32;2.83;;;;;;;9.16;100.00;99939.53;5069132;28;20180;-67
2021/10/15 08:10:26;;;;;;;5.95;2.85;;;;;;;9.18;100.00;99942.16;5056040;28;20085;-68
2021/10/15 08:13:13;;;;;;;;;;;;;;;9.38;100.00;99948.94;5070198;28;20075;-67
2021/10/15 08:16:00;;;;;;;;;;;;;;;9.59;100.00;99951.31;5051829;28;19963;-65
2021/10/15 08:18:46;;;;;;;4.72;2.22;;;;;;;9.95;100.00;99949.94;5061337;28;19985;-66
2021/10/15 08:21:32;;;;;;;7.03;2.97;;;;;;;10.40;100.00;99965.16;5047580;28;20098;-64
2021/10/15 08:24:17;;;;;;;9.00;3.30;;;;;;;10.42;100.00;99968.69;5068861;28;20448;-66
2021/10/15 08:27:01;;;;;;;5.72;2.60;;;;;;;10.40;100.00;99962.50;5056882;28;20052;-68
2021/10/15 08:29:46;;;;;;;;;;;;;;;10.37;100.00;99965.22;5057651;28;20582;-71
2021/10/15 08:32:31;;;;;;;6.63;3.00;;;;;;;10.32;100.00;99956.44;5061110;28;19942;-67
2021/10/15 08:35:16;;;;;;;6.13;2.95;;;;;;;10.55;100.00;99964.91;5071402;28;20067;-69
2021/10/15 08:38:00;;;;;;;7.65;2.90;;;;;;;10.68;100.00;99969.09;5055485;28;20121;-68
2021/10/15 08:40:47;;;;;;;4.70;3.00;;;;;;;10.92;100.00;99962.50;5071750;28;20199;-67
2021/10/15 08:43:40;;;;;;;5.53;3.20;;;;;;;11.25;100.00;99972.47;5038387;28;20095;-68
2021/10/15 08:46:27;;;;;;;4.00;2.55;;;;;;;11.56;100.00;99989.53;5055869;28;20079;-69
2021/10/15 08:49:12;;;;;;;4.38;2.22;;;;;;;11.95;100.00;99980.78;5057629;28;20047;-68
2021/10/15 08:51:59;;;;;;;4.65;2.60;;;;;;;12.31;100.00;99985.25;5057704;28;20056;-70
2021/10/15 08:54:46;;;;;;;6.47;2.60;;;;;;;12.46;100.00;99984.88;5059660;28;20143;-68
2021/10/15 08:57:31;;;;;;;3.53;2.30;;;;;;;12.82;100.00;99986.63;5058658;28;20059;-67
2021/10/15 09:00:21;;;;;;;8.02;2.55;;;;;;;12.97;98.35;99987.13;5061937;28;20103;-65
2021/10/15 09:03:23;;;;;;;5.57;2.20;;;;;;;13.35;95.49;99992.31;5059609;28;20063;-69
2021/10/15 09:06:11;;;;;;;3.33;1.60;;;;;;;13.61;91.16;99992.44;5053653;28;20094;-64
2021/10/15 09:08:57;;;;;;;3.95;2.00;;;;;;;13.69;89.19;99994.91;5059794;28;20039;-64
2021/10/15 09:11:47;;;;;;;4.30;2.22;;;;;;;13.91;87.42;99990.66;5051177;28;20063;-66
2021/10/15 09:14:34;;;;;;;3.38;1.83;;;;;;;14.00;84.17;99992.19;5052012;28;20141;-68
2021/10/15 09:17:29;;;;;;;2.33;1.48;;;;;;;14.51;79.89;99998.63;5056491;28;20630;-65
2021/10/15 09:20:27;;;;;;;6.40;1.60;;;;;;;14.60;76.16;99996.50;5060409;28;20397;-66
2021/10/15 09:23:13;;;;;;;2.60;1.50;;;;;;;14.46;76.17;100000.53;5050215;28;20083;-65
2021/10/15 09:26:04;;;;;;;4.35;1.83;;;;;;;13.93;75.87;100002.19;5054899;28;20101;-67
2021/10/15 09:28:49;;;;;;;3.45;1.42;;;;;;;13.18;78.49;100018.50;5072440;28;20051;-68
2021/10/15 09:31:34;;;;;;;;;;;;;;;12.74;83.67;100012.56;5058102;28;20047;-65
2021/10/15 09:34:23;;;;;;;5.28;1.60;;;;;;;12.48;85.29;100013.19;5055366;28;19923;-66
2021/10/15 09:37:17;;;;;;;7.30;2.33;;;;;;;12.32;87.03;100017.13;5054472;28;20056;-65
2021/10/15 09:40:13;;;;;;;2.58;1.80;;;;;;;12.01;88.67;100004.53;5068005;28;20055;-67
2021/10/15 09:43:04;;;;;;;4.75;2.10;;;;;;;11.81;90.23;100018.25;5050814;28;20102;-64
2021/10/15 09:45:52;;;;;;;2.65;1.60;;;;;;;11.87;92.46;100015.47;5049498;28;20132;-66
2021/10/15 09:48:38;;;;;;;5.82;1.77;;;;;;;11.82;92.02;100014.69;5061978;28;20109;-66
2021/10/15 09:51:24;;;;;;;5.53;1.77;;;;;;;11.94;92.18;100025.06;5057053;28;20119;-67
2021/10/15 09:54:14;;;;;;;2.60;1.58;;;;;;;11.62;92.06;100022.19;5067481;28;20055;-68
2021/10/15 09:57:01;;;;;;;2.85;1.58;;;;;;;11.28;93.26;100028.16;5058052;28;20094;-64
2021/10/15 09:59:46;;;;;;;3.75;1.67;;;;;;;11.26;95.09;100027.28;5057545;28;20052;-68
2021/10/15 10:02:32;;;;;;;2.00;1.42;;;;;;;11.21;96.76;100029.16;5056284;28;20051;-68
2021/10/15 10:05:19;;;;;;;3.28;1.50;;;;;;;11.12;97.35;100034.66;5061316;28;20052;-70
2021/10/15 10:08:05;;;;;;;3.17;1.60;;;;;;;11.18;98.90;100040.72;5047814;28;20462;-68
2021/10/15 10:10:53;;;;;;;2.78;1.45;;;;;;;11.20;100.00;100032.75;5035946;28;20051;-66
2021/10/15 10:13:39;;;;;;;7.10;1.95;;;;;;;11.35;100.00;100025.34;5071970;28;20118;-69
2021/10/15 10:16:26;;;;;;;2.75;1.50;;;;;;;11.52;100.00;100039.16;5059678;28;20059;-63
2021/10/15 10:19:12;;;;;;;2.95;1.75;;;;;;;11.30;100.00;100032.53;5062552;28;20131;-66
2021/10/15 10:21:57;;;;;;;2.97;1.70;;;;;;;11.39;100.00;100039.47;5062576;28;20048;-70
2021/10/15 10:24:47;;;;;;;4.55;2.13;;;;;;;11.49;100.00;100041.03;5059737;28;20129;-66
2021/10/15 10:27:33;;;;;;;3.13;2.00;;;;;;;11.50;100.00;100035.69;5056765;28;20051;-60
2021/10/15 10:30:38;;;;;;;4.05;2.45;;;;;;;11.29;100.00;100045.84;5058820;28;20048;-65
2021/10/15 10:33:24;;;;;;;4.20;2.15;;;;;;;10.96;100.00;100039.34;5074759;28;20052;-67
2021/10/15 10:36:13;;;;;;;4.85;2.55;;;;;;;11.11;100.00;100047.03;5057380;28;20110;-66
2021/10/15 10:39:17;;;;;;;9.02;3.03;;;;;;;11.28;100.00;100030.81;5039408;28;20055;-67
2021/10/15 10:42:20;;;;;;;3.60;2.20;;;;;;;10.94;100.00;100034.97;5066624;28;20077;-65
2021/10/15 10:45:06;;;;;;;5.72;2.35;;;;;;;10.90;100.00;100043.88;5066878;28;20051;-72
2021/10/15 10:48:07;;;;;;;6.00;2.08;;;;;;;10.94;100.00;100034.97;5063806;28;20044;-65
2021/10/15 10:51:24;;;;;;;3.80;1.98;;;;;;;11.19;100.00;100034.50;5060320;28;20059;-70
2021/10/15 10:54:09;;;;;;;3.63;2.38;;;;;;;11.31;100.00;100031.63;5065112;28;20102;-63
2021/10/15 10:56:53;;;;;;;4.10;1.77;;;;;;;11.40;100.00;100038.56;5067909;28;20139;-63
2021/10/15 10:59:38;;;;;;;4.18;1.92;;;;;;;11.47;100.00;100033.06;5065099;28;20131;-68
2021/10/15 11:02:23;;;;;;;5.80;2.00;;;;;;;11.44;100.00;100040.25;5055107;28;20055;-60
2021/10/15 11:05:10;;;;;;;2.35;1.52;;;;;;;11.43;100.00;100038.50;5066489;28;20520;-63
2021/10/15 11:08:31;;;;;;;6.28;1.90;;;;;;;11.61;100.00;100048.78;5064544;28;20481;-65
2021/10/15 11:11:26;;;;;;;4.65;1.90;;;;;;;11.65;100.00;100037.19;4989701;28;20088;-65
2021/10/15 11:14:21;;;;;;;2.08;1.52;;;;;;;11.26;100.00;100028.19;4991623;28;20057;-62
2021/10/15 11:17:11;;;;;;;5.25;2.10;;;;;;;11.04;100.00;100041.88;5004441;28;20107;-66
2021/10/15 11:20:18;;;;;;;3.63;2.05;;;;;;;11.31;100.00;100052.84;5001739;28;20096;-62
2021/10/15 11:23:07;;;;;;;3.78;1.77;;;;;;;11.43;100.00;100049.13;5003757;28;20056;-63
2021/10/15 11:25:51;;;;;;;6.30;1.75;;;;;;;11.22;100.00;100042.41;5009092;28;20064;-61
2021/10/15 11:28:36;;;;;;;3.33;1.50;;;;;;;11.08;100.00;100051.53;5006309;28;20096;-64
2021/10/15 11:31:20;;;;;;;4.25;1.77;;;;;;;10.92;100.00;100047.41;5005003;28;20073;-65
2021/10/15 11:34:13;;;;;;;4.88;1.67;;;;;;;10.83;100.00;100063.44;4989958;28;20533;-63
2021/10/15 11:37:03;;;;;;;3.72;1.65;;;;;;;10.89;100.00;100071.31;5002958;28;20056;-63
2021/10/15 11:39:48;;;;;;;4.30;1.75;;;;;;;10.90;100.00;100062.44;5005301;28;20060;-65
2021/10/15 11:42:34;;;;;;;4.60;1.70;;;;;;;11.15;100.00;100055.84;5004899;28;20542;-64
2021/10/15 11:45:21;;;;;;;3.80;2.03;;;;;;;11.50;100.00;100056.03;5043638;28;20051;-68
2021/10/15 11:48:20;;;;;;;4.32;1.60;;;;;;;11.35;99.90;100056.34;5064402;28;20102;-60
2021/10/15 11:51:14;;;;;;;2.70;1.80;;;;;;;11.01;100.00;100055.19;5059730;28;20106;-63
2021/10/15 11:54:03;;;;;;;2.10;1.50;;;;;;;10.76;99.66;100051.22;5060989;28;20150;-64
2021/10/15 11:56:47;;;;;;;8.48;1.70;;;;;;;10.86;99.14;100061.63;5056410;28;20091;-72
2021/10/15 11:59:32;;;;;;;3.25;1.65;;;;;;;10.97;98.54;100054.38;5049703;28;20094;-64
2021/10/15 12:02:19;;;;;;;3.47;1.80;;;;;;;11.02;98.64;100054.28;5057915;28;20105;-70
2021/10/15 12:05:04;;;;;;;4.10;1.85;;;;;;;11.17;98.07;100054.91;5063760;28;20047;-62
2021/10/15 12:07:51;;;;;;;2.83;1.35;;;;;;;10.93;89.84;100055.34;5055059;28;20103;-71
2021/10/15 12:10:36;;;;;;;2.28;1.70;;;;;;;10.87;87.28;100055.41;5063542;28;20052;-63
2021/10/15 12:13:23;;;;;;;2.65;1.40;;;;;;;10.98;85.22;100064.09;5064800;28;20527;-63
2021/10/15 12:16:28;;;;;;;2.40;1.40;;;;;;;10.97;82.71;100056.16;5061650;28;20148;-64
2021/10/15 12:19:31;;;;;;;6.03;1.70;;;;;;;10.60;82.42;100055.84;5057232;28;20052;-67
2021/10/15 12:22:27;;;;;;;4.97;1.45;;;;;;;10.61;82.23;100057.63;5054384;28;20113;-65
2021/10/15 12:25:12;;;;;;;2.13;1.23;;;;;;;10.51;80.84;100063.06;5049530;28;20075;-64
2021/10/15 12:27:57;;;;;;;3.30;1.50;;;;;;;10.43;80.43;100063.19;5050140;28;20183;-66
2021/10/15 12:30:43;;;;;;;3.03;1.63;;;;;;;10.46;81.43;100060.50;5053584;28;20065;-67
2021/10/15 12:33:29;;;;;;;2.88;1.52;;;;;;;10.68;82.52;100067.22;5061118;28;20527;-68
2021/10/15 12:36:24;;;;;;;2.78;1.38;;;;;;;11.00;82.72;100072.88;5056739;28;20492;-65
2021/10/15 12:39:26;;;;;;;3.40;1.30;;;;;;;11.26;82.67;100072.44;5055261;28;20047;-68
2021/10/15 12:42:15;;;;;;;4.10;1.65;;;;;;;11.11;82.66;100080.69;5050140;28;20055;-66
2021/10/15 12:45:13;;;;;;;4.47;1.83;;;;;;;11.19;82.63;100076.13;5048326;28;20055;-63
2021/10/15 12:48:01;;;;;;;2.65;1.80;;;;;;;10.89;83.46;100073.97;5059797;28;20051;-76
2021/10/15 12:51:06;;;;;;;5.15;1.70;;;;;;;10.98;83.47;100081.78;5062368;28;20571;-65
2021/10/15 12:53:51;;;;;;;4.65;1.48;;;;;;;11.24;82.05;100072.44;5049459;28;20072;-59
2021/10/15 12:56:38;;;;;;;2.50;1.45;;;;;;;11.37;79.58;100073.13;5045023;28;20059;-66
2021/10/15 12:59:24;;;;;;;2.72;1.45;;;;;;;11.41;78.38;100086.31;5056445;28;20060;-61
2021/10/15 13:02:11;;;;;;;3.42;1.30;;;;;;;11.41;77.63;100077.47;5043951;28;20141;-59
2021/10/15 13:05:03;;;;;;;3.72;1.30;;;;;;;11.30;77.27;100084.75;5055270;28;20064;-61
2021/10/15 13:07:48;;;;;;;4.20;1.38;;;;;;;10.94;78.12;100080.06;5031014;28;20052;-69
2021/10/15 13:10:34;;;;;;;3.17;1.38;;;;;;;10.97;78.98;100077.38;5058118;28;20139;-63
2021/10/15 13:13:20;;;;;;;4.90;1.60;;;;;;;10.90;80.05;100081.03;5051927;28;20943;-66
2021/10/15 13:16:05;;;;;;;3.28;1.58;;;;;;;10.76;80.79;100072.41;5071034;28;20135;-61
2021/10/15 13:18:50;;;;;;;3.33;1.27;;;;;;;10.82;81.58;100083.81;5058424;28;20051;-64